sensor_id;sensor_type;location;lat;lon;timestamp;P1;durP1;ratioP1;P2;durP2;ratioP2
45059;SDS011;30799;49.060;9.312;2023-01-24T00:01:59;4.28;;;3.80;;
45059;SDS011;30799;49.060;9.312;2023-01-24T00:04:31;5.00;;;4.07;;
45059;SDS011;30799;49.060;9.312;2023-01-24T00:07:01;4.78;;;3.85;;
45059;SDS011;30799;49.060;9.312;2023-01-24T00:09:31;4.30;;;3.45;;
45059;SDS011;30799;49.060;9.312;2023-01-24T00:12:01;4.93;;;3.80;;
45059;SDS011;30799;49.060;9.312;2023-01-24T00:14:31;6.10;;;3.75;;
45059;SDS011;30799;49.060;9.312;2023-01-24T00:16:59;4.97;;;4.20;;
45059;SDS011;30799;49.060;9.312;2023-01-24T00:19:27;4.10;;;3.70;;
45059;SDS011;30799;49.060;9.312;2023-01-24T00:21:57;4.72;;;3.55;;
45059;SDS011;30799;49.060;9.312;2023-01-24T00:24:28;4.65;;;4.13;;
45059;SDS011;30799;49.060;9.312;2023-01-24T00:26:59;4.10;;;3.70;;
45059;SDS011;30799;49.060;9.312;2023-01-24T00:29:28;4.38;;;3.47;;
45059;SDS011;30799;49.060;9.312;2023-01-24T00:31:58;4.03;;;3.50;;
45059;SDS011;30799;49.060;9.312;2023-01-24T00:34:28;3.78;;;3.30;;
45059;SDS011;30799;49.060;9.312;2023-01-24T00:36:58;3.63;;;3.33;;
45059;SDS011;30799;49.060;9.312;2023-01-24T00:39:28;3.67;;;3.33;;
45059;SDS011;30799;49.060;9.312;2023-01-24T00:41:56;3.85;;;3.55;;
45059;SDS011;30799;49.060;9.312;2023-01-24T00:44:26;4.43;;;3.50;;
45059;SDS011;30799;49.060;9.312;2023-01-24T00:46:56;6.15;;;3.67;;
45059;SDS011;30799;49.060;9.312;2023-01-24T00:49:25;4.85;;;3.50;;
45059;SDS011;30799;49.060;9.312;2023-01-24T00:51:55;3.35;;;3.05;;
45059;SDS011;30799;49.060;9.312;2023-01-24T00:54:25;3.65;;;3.35;;
45059;SDS011;30799;49.060;9.312;2023-01-24T00:56:54;4.68;;;3.45;;
45059;SDS011;30799;49.060;9.312;2023-01-24T00:59:22;4.70;;;3.30;;
45059;SDS011;30799;49.060;9.312;2023-01-24T01:01:52;3.60;;;3.13;;
45059;SDS011;30799;49.060;9.312;2023-01-24T01:04:22;3.47;;;3.15;;
45059;SDS011;30799;49.060;9.312;2023-01-24T01:06:52;4.13;;;3.72;;
45059;SDS011;30799;49.060;9.312;2023-01-24T01:09:22;3.60;;;3.30;;
45059;SDS011;30799;49.060;9.312;2023-01-24T01:11:52;4.07;;;3.53;;
45059;SDS011;30799;49.060;9.312;2023-01-24T01:14:25;4.05;;;3.60;;
45059;SDS011;30799;49.060;9.312;2023-01-24T01:16:53;3.75;;;3.30;;
45059;SDS011;30799;49.060;9.312;2023-01-24T01:19:29;3.75;;;3.22;;
45059;SDS011;30799;49.060;9.312;2023-01-24T01:21:58;3.78;;;3.38;;
45059;SDS011;30799;49.060;9.312;2023-01-24T01:24:32;3.88;;;3.47;;
45059;SDS011;30799;49.060;9.312;2023-01-24T01:27:02;4.75;;;3.40;;
45059;SDS011;30799;49.060;9.312;2023-01-24T01:29:32;4.03;;;3.20;;
45059;SDS011;30799;49.060;9.312;2023-01-24T01:32:04;3.53;;;3.10;;
45059;SDS011;30799;49.060;9.312;2023-01-24T01:37:05;3.85;;;3.00;;
45059;SDS011;30799;49.060;9.312;2023-01-24T01:39:35;3.80;;;3.40;;
45059;SDS011;30799;49.060;9.312;2023-01-24T01:42:05;3.65;;;3.10;;
45059;SDS011;30799;49.060;9.312;2023-01-24T01:44:35;4.90;;;3.25;;
45059;SDS011;30799;49.060;9.312;2023-01-24T01:47:13;2.80;;;2.60;;
45059;SDS011;30799;49.060;9.312;2023-01-24T01:52:34;3.40;;;3.10;;
45059;SDS011;30799;49.060;9.312;2023-01-24T01:55:12;3.28;;;2.97;;
45059;SDS011;30799;49.060;9.312;2023-01-24T01:57:41;3.45;;;3.15;;
45059;SDS011;30799;49.060;9.312;2023-01-24T02:00:13;3.58;;;3.10;;
45059;SDS011;30799;49.060;9.312;2023-01-24T02:02:43;3.40;;;2.92;;
45059;SDS011;30799;49.060;9.312;2023-01-24T02:05:15;3.25;;;2.90;;
45059;SDS011;30799;49.060;9.312;2023-01-24T02:07:58;3.38;;;3.03;;
45059;SDS011;30799;49.060;9.312;2023-01-24T02:10:28;3.72;;;3.38;;
45059;SDS011;30799;49.060;9.312;2023-01-24T02:13:19;3.60;;;3.03;;
45059;SDS011;30799;49.060;9.312;2023-01-24T02:15:52;3.78;;;3.38;;
45059;SDS011;30799;49.060;9.312;2023-01-24T02:18:39;3.85;;;3.17;;
45059;SDS011;30799;49.060;9.312;2023-01-24T02:21:11;3.20;;;2.90;;
45059;SDS011;30799;49.060;9.312;2023-01-24T02:26:24;3.57;;;3.03;;
45059;SDS011;30799;49.060;9.312;2023-01-24T02:34:22;3.25;;;2.95;;
45059;SDS011;30799;49.060;9.312;2023-01-24T02:36:53;3.28;;;2.97;;
45059;SDS011;30799;49.060;9.312;2023-01-24T02:39:29;3.28;;;2.97;;
45059;SDS011;30799;49.060;9.312;2023-01-24T02:41:59;3.10;;;2.80;;
45059;SDS011;30799;49.060;9.312;2023-01-24T02:44:51;4.43;;;3.40;;
45059;SDS011;30799;49.060;9.312;2023-01-24T02:47:25;3.70;;;3.33;;
45059;SDS011;30799;49.060;9.312;2023-01-24T02:49:59;3.08;;;2.88;;
45059;SDS011;30799;49.060;9.312;2023-01-24T02:52:29;3.00;;;2.75;;
45059;SDS011;30799;49.060;9.312;2023-01-24T02:55:17;3.20;;;2.90;;
45059;SDS011;30799;49.060;9.312;2023-01-24T02:57:48;3.20;;;2.90;;
45059;SDS011;30799;49.060;9.312;2023-01-24T03:00:38;3.50;;;3.20;;
45059;SDS011;30799;49.060;9.312;2023-01-24T03:03:08;2.95;;;2.70;;
45059;SDS011;30799;49.060;9.312;2023-01-24T03:05:38;3.60;;;3.22;;
45059;SDS011;30799;49.060;9.312;2023-01-24T03:08:24;3.47;;;3.10;;
45059;SDS011;30799;49.060;9.312;2023-01-24T03:10:54;2.75;;;2.55;;
45059;SDS011;30799;49.060;9.312;2023-01-24T03:13:24;3.65;;;3.05;;
45059;SDS011;30799;49.060;9.312;2023-01-24T03:16:13;3.40;;;3.10;;
45059;SDS011;30799;49.060;9.312;2023-01-24T03:19:03;3.00;;;2.70;;
45059;SDS011;30799;49.060;9.312;2023-01-24T03:21:52;3.53;;;3.22;;
45059;SDS011;30799;49.060;9.312;2023-01-24T03:24:41;3.67;;;2.55;;
45059;SDS011;30799;49.060;9.312;2023-01-24T03:27:30;3.17;;;2.88;;
45059;SDS011;30799;49.060;9.312;2023-01-24T03:30:18;2.92;;;2.72;;
45059;SDS011;30799;49.060;9.312;2023-01-24T03:33:07;3.28;;;2.97;;
45059;SDS011;30799;49.060;9.312;2023-01-24T03:35:56;2.95;;;2.70;;
45059;SDS011;30799;49.060;9.312;2023-01-24T03:38:27;3.10;;;2.80;;
45059;SDS011;30799;49.060;9.312;2023-01-24T03:41:16;3.35;;;3.00;;
45059;SDS011;30799;49.060;9.312;2023-01-24T03:43:46;3.00;;;2.78;;
45059;SDS011;30799;49.060;9.312;2023-01-24T03:46:18;2.90;;;2.70;;
45059;SDS011;30799;49.060;9.312;2023-01-24T03:48:48;2.63;;;2.42;;
45059;SDS011;30799;49.060;9.312;2023-01-24T03:51:18;2.88;;;2.67;;
45059;SDS011;30799;49.060;9.312;2023-01-24T03:54:05;3.38;;;2.97;;
45059;SDS011;30799;49.060;9.312;2023-01-24T03:56:35;3.00;;;2.80;;
45059;SDS011;30799;49.060;9.312;2023-01-24T03:59:05;2.80;;;2.60;;
45059;SDS011;30799;49.060;9.312;2023-01-24T04:01:35;3.10;;;2.80;;
45059;SDS011;30799;49.060;9.312;2023-01-24T04:04:04;3.55;;;3.20;;
45059;SDS011;30799;49.060;9.312;2023-01-24T04:06:34;3.20;;;2.90;;
45059;SDS011;30799;49.060;9.312;2023-01-24T04:09:04;3.00;;;2.80;;
45059;SDS011;30799;49.060;9.312;2023-01-24T04:11:34;2.80;;;2.60;;
45059;SDS011;30799;49.060;9.312;2023-01-24T04:14:04;2.80;;;2.60;;
45059;SDS011;30799;49.060;9.312;2023-01-24T04:16:34;2.60;;;2.40;;
45059;SDS011;30799;49.060;9.312;2023-01-24T04:19:04;2.90;;;2.70;;
45059;SDS011;30799;49.060;9.312;2023-01-24T04:21:34;2.97;;;2.70;;
45059;SDS011;30799;49.060;9.312;2023-01-24T04:24:04;3.08;;;2.88;;
45059;SDS011;30799;49.060;9.312;2023-01-24T04:26:33;2.90;;;2.70;;
45059;SDS011;30799;49.060;9.312;2023-01-24T04:29:03;3.30;;;3.00;;
45059;SDS011;30799;49.060;9.312;2023-01-24T04:31:32;2.65;;;2.45;;
45059;SDS011;30799;49.060;9.312;2023-01-24T04:34:01;3.00;;;2.80;;
45059;SDS011;30799;49.060;9.312;2023-01-24T04:36:32;2.85;;;2.65;;
45059;SDS011;30799;49.060;9.312;2023-01-24T04:39:00;2.88;;;2.50;;
45059;SDS011;30799;49.060;9.312;2023-01-24T04:41:28;3.22;;;2.83;;
45059;SDS011;30799;49.060;9.312;2023-01-24T04:43:58;2.67;;;2.45;;
45059;SDS011;30799;49.060;9.312;2023-01-24T04:46:28;3.08;;;2.88;;
45059;SDS011;30799;49.060;9.312;2023-01-24T04:48:58;2.72;;;2.53;;
45059;SDS011;30799;49.060;9.312;2023-01-24T04:51:28;3.20;;;2.90;;
45059;SDS011;30799;49.060;9.312;2023-01-24T04:53:57;2.60;;;2.40;;
45059;SDS011;30799;49.060;9.312;2023-01-24T04:56:25;3.15;;;2.72;;
45059;SDS011;30799;49.060;9.312;2023-01-24T04:58:57;3.05;;;2.75;;
45059;SDS011;30799;49.060;9.312;2023-01-24T05:01:26;3.13;;;2.70;;
45059;SDS011;30799;49.060;9.312;2023-01-24T05:03:56;2.95;;;2.75;;
45059;SDS011;30799;49.060;9.312;2023-01-24T05:06:27;2.67;;;2.47;;
45059;SDS011;30799;49.060;9.312;2023-01-24T05:08:55;2.70;;;2.50;;
45059;SDS011;30799;49.060;9.312;2023-01-24T05:11:23;3.05;;;2.70;;
45059;SDS011;30799;49.060;9.312;2023-01-24T05:13:52;3.00;;;2.70;;
45059;SDS011;30799;49.060;9.312;2023-01-24T05:16:20;2.60;;;2.40;;
45059;SDS011;30799;49.060;9.312;2023-01-24T05:18:50;3.33;;;2.75;;
45059;SDS011;30799;49.060;9.312;2023-01-24T05:21:18;2.75;;;2.55;;
45059;SDS011;30799;49.060;9.312;2023-01-24T05:23:48;2.83;;;2.63;;
45059;SDS011;30799;49.060;9.312;2023-01-24T05:26:21;2.72;;;2.50;;
45059;SDS011;30799;49.060;9.312;2023-01-24T05:28:51;2.70;;;2.50;;
45059;SDS011;30799;49.060;9.312;2023-01-24T05:31:21;2.55;;;2.35;;
45059;SDS011;30799;49.060;9.312;2023-01-24T05:33:51;3.00;;;2.70;;
45059;SDS011;30799;49.060;9.312;2023-01-24T05:36:20;3.00;;;2.70;;
45059;SDS011;30799;49.060;9.312;2023-01-24T05:38:49;2.63;;;2.42;;
45059;SDS011;30799;49.060;9.312;2023-01-24T05:41:18;2.95;;;2.65;;
45059;SDS011;30799;49.060;9.312;2023-01-24T05:43:47;2.78;;;2.58;;
45059;SDS011;30799;49.060;9.312;2023-01-24T05:46:17;2.78;;;2.55;;
45059;SDS011;30799;49.060;9.312;2023-01-24T05:48:46;2.95;;;2.65;;
45059;SDS011;30799;49.060;9.312;2023-01-24T05:51:15;2.78;;;2.58;;
45059;SDS011;30799;49.060;9.312;2023-01-24T05:53:46;3.95;;;2.35;;
45059;SDS011;30799;49.060;9.312;2023-01-24T05:56:15;3.88;;;2.33;;
45059;SDS011;30799;49.060;9.312;2023-01-24T05:58:44;3.65;;;2.83;;
45059;SDS011;30799;49.060;9.312;2023-01-24T06:01:17;2.70;;;2.50;;
45059;SDS011;30799;49.060;9.312;2023-01-24T06:03:46;2.83;;;2.58;;
45059;SDS011;30799;49.060;9.312;2023-01-24T06:06:15;4.63;;;2.78;;
45059;SDS011;30799;49.060;9.312;2023-01-24T06:08:46;4.28;;;2.70;;
45059;SDS011;30799;49.060;9.312;2023-01-24T06:11:15;3.38;;;2.80;;
45059;SDS011;30799;49.060;9.312;2023-01-24T06:13:46;2.67;;;2.40;;
45059;SDS011;30799;49.060;9.312;2023-01-24T06:16:17;3.97;;;3.00;;
45059;SDS011;30799;49.060;9.312;2023-01-24T06:18:48;5.87;;;2.50;;
45059;SDS011;30799;49.060;9.312;2023-01-24T06:23:58;4.60;;;2.83;;
45059;SDS011;30799;49.060;9.312;2023-01-24T06:26:28;6.57;;;3.20;;
45059;SDS011;30799;49.060;9.312;2023-01-24T06:28:59;5.45;;;3.03;;
45059;SDS011;30799;49.060;9.312;2023-01-24T06:37:05;6.15;;;4.05;;
45059;SDS011;30799;49.060;9.312;2023-01-24T06:39:38;7.18;;;4.55;;
45059;SDS011;30799;49.060;9.312;2023-01-24T06:42:09;5.78;;;3.75;;
45059;SDS011;30799;49.060;9.312;2023-01-24T06:44:39;6.10;;;3.70;;
45059;SDS011;30799;49.060;9.312;2023-01-24T06:47:09;7.70;;;3.88;;
45059;SDS011;30799;49.060;9.312;2023-01-24T06:49:40;11.30;;;3.70;;
45059;SDS011;30799;49.060;9.312;2023-01-24T06:52:11;6.90;;;3.90;;
45059;SDS011;30799;49.060;9.312;2023-01-24T06:54:41;5.53;;;4.00;;
45059;SDS011;30799;49.060;9.312;2023-01-24T06:57:09;7.32;;;3.65;;
45059;SDS011;30799;49.060;9.312;2023-01-24T06:59:37;6.07;;;4.00;;
45059;SDS011;30799;49.060;9.312;2023-01-24T07:02:10;6.60;;;3.90;;
45059;SDS011;30799;49.060;9.312;2023-01-24T07:04:40;6.75;;;3.80;;
45059;SDS011;30799;49.060;9.312;2023-01-24T07:07:10;6.78;;;4.35;;
45059;SDS011;30799;49.060;9.312;2023-01-24T07:09:40;4.88;;;3.88;;
45059;SDS011;30799;49.060;9.312;2023-01-24T07:12:10;6.97;;;4.15;;
45059;SDS011;30799;49.060;9.312;2023-01-24T07:14:40;4.95;;;3.55;;
45059;SDS011;30799;49.060;9.312;2023-01-24T07:17:10;5.50;;;3.85;;
45059;SDS011;30799;49.060;9.312;2023-01-24T07:19:39;7.60;;;4.47;;
45059;SDS011;30799;49.060;9.312;2023-01-24T07:22:12;6.03;;;3.85;;
45059;SDS011;30799;49.060;9.312;2023-01-24T07:24:42;5.72;;;3.88;;
45059;SDS011;30799;49.060;9.312;2023-01-24T07:27:12;4.88;;;4.03;;
45059;SDS011;30799;49.060;9.312;2023-01-24T07:29:43;6.88;;;3.97;;
45059;SDS011;30799;49.060;9.312;2023-01-24T07:32:13;4.85;;;3.72;;
45059;SDS011;30799;49.060;9.312;2023-01-24T07:34:43;6.90;;;4.15;;
45059;SDS011;30799;49.060;9.312;2023-01-24T07:37:11;5.88;;;3.55;;
45059;SDS011;30799;49.060;9.312;2023-01-24T07:39:43;5.85;;;3.90;;
45059;SDS011;30799;49.060;9.312;2023-01-24T07:42:11;7.10;;;4.30;;
45059;SDS011;30799;49.060;9.312;2023-01-24T07:44:41;4.93;;;3.78;;
45059;SDS011;30799;49.060;9.312;2023-01-24T07:47:12;4.85;;;3.85;;
45059;SDS011;30799;49.060;9.312;2023-01-24T07:49:42;5.57;;;4.00;;
45059;SDS011;30799;49.060;9.312;2023-01-24T07:52:12;4.20;;;3.80;;
45059;SDS011;30799;49.060;9.312;2023-01-24T07:54:42;6.55;;;4.10;;
45059;SDS011;30799;49.060;9.312;2023-01-24T07:57:12;5.20;;;3.67;;
45059;SDS011;30799;49.060;9.312;2023-01-24T07:59:43;4.90;;;4.18;;
45059;SDS011;30799;49.060;9.312;2023-01-24T08:02:13;5.07;;;3.92;;
45059;SDS011;30799;49.060;9.312;2023-01-24T08:04:46;4.53;;;3.58;;
45059;SDS011;30799;49.060;9.312;2023-01-24T08:07:18;4.18;;;3.70;;
45059;SDS011;30799;49.060;9.312;2023-01-24T08:09:48;5.47;;;4.00;;
45059;SDS011;30799;49.060;9.312;2023-01-24T08:12:19;4.90;;;4.40;;
45059;SDS011;30799;49.060;9.312;2023-01-24T08:14:49;4.65;;;3.70;;
45059;SDS011;30799;49.060;9.312;2023-01-24T08:17:22;4.15;;;3.75;;
45059;SDS011;30799;49.060;9.312;2023-01-24T08:19:52;5.93;;;4.70;;
45059;SDS011;30799;49.060;9.312;2023-01-24T08:22:24;5.20;;;3.90;;
45059;SDS011;30799;49.060;9.312;2023-01-24T08:24:56;5.07;;;4.55;;
45059;SDS011;30799;49.060;9.312;2023-01-24T08:27:29;4.82;;;4.20;;
45059;SDS011;30799;49.060;9.312;2023-01-24T08:29:59;5.15;;;4.30;;
45059;SDS011;30799;49.060;9.312;2023-01-24T08:32:30;4.38;;;3.90;;
45059;SDS011;30799;49.060;9.312;2023-01-24T08:35:00;5.07;;;4.30;;
45059;SDS011;30799;49.060;9.312;2023-01-24T08:37:32;4.63;;;4.22;;
45059;SDS011;30799;49.060;9.312;2023-01-24T08:40:05;4.45;;;4.00;;
45059;SDS011;30799;49.060;9.312;2023-01-24T08:42:36;5.50;;;4.00;;
45059;SDS011;30799;49.060;9.312;2023-01-24T08:45:07;6.25;;;4.43;;
45059;SDS011;30799;49.060;9.312;2023-01-24T08:47:37;5.32;;;4.68;;
45059;SDS011;30799;49.060;9.312;2023-01-24T08:50:08;6.18;;;4.53;;
45059;SDS011;30799;49.060;9.312;2023-01-24T08:52:42;4.45;;;4.03;;
45059;SDS011;30799;49.060;9.312;2023-01-24T08:55:12;5.72;;;4.47;;
45059;SDS011;30799;49.060;9.312;2023-01-24T08:57:43;4.75;;;3.95;;
45059;SDS011;30799;49.060;9.312;2023-01-24T09:00:13;6.68;;;4.63;;
45059;SDS011;30799;49.060;9.312;2023-01-24T09:02:46;5.25;;;4.47;;
45059;SDS011;30799;49.060;9.312;2023-01-24T09:05:16;5.70;;;4.43;;
45059;SDS011;30799;49.060;9.312;2023-01-24T09:07:49;4.70;;;4.20;;
45059;SDS011;30799;49.060;9.312;2023-01-24T09:10:30;5.15;;;4.03;;
45059;SDS011;30799;49.060;9.312;2023-01-24T09:13:06;5.20;;;4.70;;
45059;SDS011;30799;49.060;9.312;2023-01-24T09:15:41;5.13;;;4.63;;
45059;SDS011;30799;49.060;9.312;2023-01-24T09:18:13;4.55;;;4.15;;
45059;SDS011;30799;49.060;9.312;2023-01-24T09:20:43;5.70;;;4.53;;
45059;SDS011;30799;49.060;9.312;2023-01-24T09:23:14;5.20;;;3.90;;
45059;SDS011;30799;49.060;9.312;2023-01-24T09:25:51;5.53;;;4.57;;
45059;SDS011;30799;49.060;9.312;2023-01-24T09:28:21;6.40;;;4.88;;
45059;SDS011;30799;49.060;9.312;2023-01-24T09:30:52;5.43;;;4.72;;
45059;SDS011;30799;49.060;9.312;2023-01-24T09:33:22;4.95;;;4.45;;
45059;SDS011;30799;49.060;9.312;2023-01-24T09:35:57;4.63;;;4.10;;
45059;SDS011;30799;49.060;9.312;2023-01-24T09:38:28;5.25;;;4.50;;
45059;SDS011;30799;49.060;9.312;2023-01-24T09:41:16;5.25;;;4.32;;
45059;SDS011;30799;49.060;9.312;2023-01-24T09:43:51;6.03;;;4.57;;
45059;SDS011;30799;49.060;9.312;2023-01-24T09:46:30;5.50;;;4.22;;
45059;SDS011;30799;49.060;9.312;2023-01-24T09:51:40;4.97;;;4.28;;
45059;SDS011;30799;49.060;9.312;2023-01-24T09:54:14;4.18;;;3.78;;
45059;SDS011;30799;49.060;9.312;2023-01-24T09:56:45;5.45;;;4.30;;
45059;SDS011;30799;49.060;9.312;2023-01-24T09:59:22;5.07;;;4.57;;
45059;SDS011;30799;49.060;9.312;2023-01-24T10:01:53;4.80;;;4.30;;
45059;SDS011;30799;49.060;9.312;2023-01-24T10:04:31;4.40;;;4.00;;
45059;SDS011;30799;49.060;9.312;2023-01-24T10:09:40;4.45;;;4.03;;
45059;SDS011;30799;49.060;9.312;2023-01-24T10:12:52;6.03;;;4.25;;
45059;SDS011;30799;49.060;9.312;2023-01-24T10:20:55;4.20;;;3.80;;
45059;SDS011;30799;49.060;9.312;2023-01-24T10:23:27;5.03;;;4.25;;
45059;SDS011;30799;49.060;9.312;2023-01-24T10:26:11;4.30;;;4.00;;
45059;SDS011;30799;49.060;9.312;2023-01-24T10:28:48;4.35;;;3.95;;
45059;SDS011;30799;49.060;9.312;2023-01-24T10:34:15;4.40;;;4.00;;
45059;SDS011;30799;49.060;9.312;2023-01-24T10:39:13;3.72;;;3.42;;
45059;SDS011;30799;49.060;9.312;2023-01-24T10:41:43;4.32;;;3.92;;
45059;SDS011;30799;49.060;9.312;2023-01-24T10:44:14;4.07;;;3.67;;
45059;SDS011;30799;49.060;9.312;2023-01-24T10:49:18;4.25;;;3.85;;
45059;SDS011;30799;49.060;9.312;2023-01-24T10:52:07;5.43;;;4.53;;
45059;SDS011;30799;49.060;9.312;2023-01-24T10:54:56;4.55;;;4.15;;
45059;SDS011;30799;49.060;9.312;2023-01-24T10:57:32;5.03;;;4.57;;
45059;SDS011;30799;49.060;9.312;2023-01-24T11:02:47;5.88;;;4.50;;
45059;SDS011;30799;49.060;9.312;2023-01-24T11:05:16;4.20;;;3.78;;
45059;SDS011;30799;49.060;9.312;2023-01-24T11:07:46;4.85;;;4.00;;
45059;SDS011;30799;49.060;9.312;2023-01-24T11:10:26;4.75;;;4.35;;
45059;SDS011;30799;49.060;9.312;2023-01-24T11:12:59;4.40;;;4.00;;
45059;SDS011;30799;49.060;9.312;2023-01-24T11:15:33;4.35;;;3.95;;
45059;SDS011;30799;49.060;9.312;2023-01-24T11:18:06;4.20;;;3.80;;
45059;SDS011;30799;49.060;9.312;2023-01-24T11:20:40;4.50;;;4.10;;
45059;SDS011;30799;49.060;9.312;2023-01-24T11:23:12;4.38;;;3.80;;
45059;SDS011;30799;49.060;9.312;2023-01-24T11:28:30;3.72;;;3.42;;
45059;SDS011;30799;49.060;9.312;2023-01-24T11:31:00;4.03;;;3.63;;
45059;SDS011;30799;49.060;9.312;2023-01-24T11:41:59;4.50;;;3.75;;
45059;SDS011;30799;49.060;9.312;2023-01-24T11:47:07;4.57;;;4.18;;
45059;SDS011;30799;49.060;9.312;2023-01-24T11:55:07;4.43;;;4.03;;
45059;SDS011;30799;49.060;9.312;2023-01-24T12:00:30;3.78;;;3.47;;
45059;SDS011;30799;49.060;9.312;2023-01-24T12:14:02;4.32;;;3.92;;
45059;SDS011;30799;49.060;9.312;2023-01-24T12:19:27;3.67;;;3.33;;
45059;SDS011;30799;49.060;9.312;2023-01-24T12:21:59;3.90;;;3.60;;
45059;SDS011;30799;49.060;9.312;2023-01-24T12:24:29;4.18;;;3.78;;
45059;SDS011;30799;49.060;9.312;2023-01-24T12:26:59;3.88;;;3.58;;
45059;SDS011;30799;49.060;9.312;2023-01-24T12:29:39;4.25;;;3.85;;
45059;SDS011;30799;49.060;9.312;2023-01-24T12:32:13;3.67;;;3.37;;
45059;SDS011;30799;49.060;9.312;2023-01-24T12:34:44;3.80;;;3.50;;
45059;SDS011;30799;49.060;9.312;2023-01-24T12:39:46;3.70;;;3.40;;
45059;SDS011;30799;49.060;9.312;2023-01-24T12:42:18;4.38;;;3.72;;
45059;SDS011;30799;49.060;9.312;2023-01-24T12:44:48;3.92;;;3.63;;
45059;SDS011;30799;49.060;9.312;2023-01-24T12:47:37;3.50;;;3.20;;
45059;SDS011;30799;49.060;9.312;2023-01-24T12:50:19;3.50;;;3.20;;
45059;SDS011;30799;49.060;9.312;2023-01-24T12:52:52;3.88;;;3.58;;
45059;SDS011;30799;49.060;9.312;2023-01-24T13:03:32;3.73;;;3.43;;
45059;SDS011;30799;49.060;9.312;2023-01-24T13:11:41;3.50;;;3.20;;
45059;SDS011;30799;49.060;9.312;2023-01-24T13:22:01;3.85;;;3.45;;
45059;SDS011;30799;49.060;9.312;2023-01-24T13:30:03;3.47;;;3.17;;
45059;SDS011;30799;49.060;9.312;2023-01-24T13:32:33;3.45;;;3.15;;
45059;SDS011;30799;49.060;9.312;2023-01-24T13:35:17;3.80;;;3.40;;
45059;SDS011;30799;49.060;9.312;2023-01-24T13:37:53;4.00;;;3.65;;
45059;SDS011;30799;49.060;9.312;2023-01-24T13:40:24;3.53;;;3.20;;
45059;SDS011;30799;49.060;9.312;2023-01-24T13:42:56;3.85;;;3.47;;
45059;SDS011;30799;49.060;9.312;2023-01-24T13:47:53;3.40;;;3.08;;
45059;SDS011;30799;49.060;9.312;2023-01-24T13:50:28;3.60;;;3.30;;
45059;SDS011;30799;49.060;9.312;2023-01-24T13:52:56;3.33;;;3.03;;
45059;SDS011;30799;49.060;9.312;2023-01-24T14:03:16;3.50;;;3.20;;
45059;SDS011;30799;49.060;9.312;2023-01-24T14:05:50;3.70;;;3.40;;
45059;SDS011;30799;49.060;9.312;2023-01-24T14:10:48;3.28;;;2.97;;
45059;SDS011;30799;49.060;9.312;2023-01-24T14:16:10;3.83;;;3.15;;
45059;SDS011;30799;49.060;9.312;2023-01-24T14:21:13;3.78;;;3.47;;
45059;SDS011;30799;49.060;9.312;2023-01-24T14:23:41;3.45;;;3.15;;
45059;SDS011;30799;49.060;9.312;2023-01-24T14:26:13;3.72;;;3.42;;
45059;SDS011;30799;49.060;9.312;2023-01-24T14:28:45;3.53;;;3.22;;
45059;SDS011;30799;49.060;9.312;2023-01-24T14:31:32;3.40;;;3.10;;
45059;SDS011;30799;49.060;9.312;2023-01-24T14:36:39;3.60;;;3.30;;
45059;SDS011;30799;49.060;9.312;2023-01-24T14:39:26;4.07;;;3.75;;
45059;SDS011;30799;49.060;9.312;2023-01-24T14:41:55;3.28;;;3.00;;
45059;SDS011;30799;49.060;9.312;2023-01-24T14:44:24;3.33;;;3.03;;
45059;SDS011;30799;49.060;9.312;2023-01-24T14:49:34;3.45;;;3.13;;
45059;SDS011;30799;49.060;9.312;2023-01-24T14:52:14;3.50;;;3.20;;
45059;SDS011;30799;49.060;9.312;2023-01-24T14:54:48;3.50;;;3.20;;
45059;SDS011;30799;49.060;9.312;2023-01-24T15:02:27;3.95;;;3.63;;
45059;SDS011;30799;49.060;9.312;2023-01-24T15:04:55;3.80;;;3.50;;
45059;SDS011;30799;49.060;9.312;2023-01-24T15:07:24;3.47;;;3.17;;
45059;SDS011;30799;49.060;9.312;2023-01-24T15:09:52;3.28;;;3.00;;
45059;SDS011;30799;49.060;9.312;2023-01-24T15:12:26;4.10;;;3.53;;
45059;SDS011;30799;49.060;9.312;2023-01-24T15:14:55;3.72;;;3.42;;
45059;SDS011;30799;49.060;9.312;2023-01-24T15:17:25;3.50;;;3.20;;
45059;SDS011;30799;49.060;9.312;2023-01-24T15:19:55;3.60;;;3.30;;
45059;SDS011;30799;49.060;9.312;2023-01-24T15:22:26;3.63;;;3.33;;
45059;SDS011;30799;49.060;9.312;2023-01-24T15:24:54;3.00;;;2.80;;
45059;SDS011;30799;49.060;9.312;2023-01-24T15:32:44;3.70;;;3.40;;
45059;SDS011;30799;49.060;9.312;2023-01-24T15:35:18;3.47;;;3.17;;
45059;SDS011;30799;49.060;9.312;2023-01-24T15:40:27;4.03;;;3.40;;
45059;SDS011;30799;49.060;9.312;2023-01-24T15:42:55;3.40;;;3.10;;
45059;SDS011;30799;49.060;9.312;2023-01-24T15:45:48;3.63;;;3.33;;
45059;SDS011;30799;49.060;9.312;2023-01-24T15:48:21;3.47;;;3.15;;
45059;SDS011;30799;49.060;9.312;2023-01-24T15:50:55;3.40;;;3.10;;
45059;SDS011;30799;49.060;9.312;2023-01-24T15:53:36;3.30;;;3.00;;
45059;SDS011;30799;49.060;9.312;2023-01-24T15:56:09;5.60;;;3.60;;
45059;SDS011;30799;49.060;9.312;2023-01-24T15:58:38;12.02;;;9.40;;
45059;SDS011;30799;49.060;9.312;2023-01-24T16:01:06;16.88;;;11.43;;
45059;SDS011;30799;49.060;9.312;2023-01-24T16:03:33;12.68;;;10.93;;
45059;SDS011;30799;49.060;9.312;2023-01-24T16:06:00;11.60;;;8.68;;
45059;SDS011;30799;49.060;9.312;2023-01-24T16:08:27;11.25;;;8.18;;
45059;SDS011;30799;49.060;9.312;2023-01-24T16:10:54;10.95;;;6.85;;
45059;SDS011;30799;49.060;9.312;2023-01-24T16:15:54;6.90;;;6.20;;
45059;SDS011;30799;49.060;9.312;2023-01-24T16:18:21;8.10;;;5.88;;
45059;SDS011;30799;49.060;9.312;2023-01-24T16:20:48;7.25;;;6.13;;
45059;SDS011;30799;49.060;9.312;2023-01-24T16:23:15;9.40;;;6.50;;
45059;SDS011;30799;49.060;9.312;2023-01-24T16:25:49;11.70;;;5.82;;
45059;SDS011;30799;49.060;9.312;2023-01-24T16:28:17;21.83;;;5.53;;
45059;SDS011;30799;49.060;9.312;2023-01-24T16:30:45;7.22;;;5.68;;
45059;SDS011;30799;49.060;9.312;2023-01-24T16:33:56;8.15;;;6.10;;
45059;SDS011;30799;49.060;9.312;2023-01-24T16:36:29;8.43;;;5.57;;
45059;SDS011;30799;49.060;9.312;2023-01-24T16:39:04;7.32;;;5.50;;
45059;SDS011;30799;49.060;9.312;2023-01-24T16:41:38;8.05;;;5.28;;
45059;SDS011;30799;49.060;9.312;2023-01-24T16:44:10;9.63;;;5.35;;
45059;SDS011;30799;49.060;9.312;2023-01-24T16:46:46;8.13;;;5.07;;
45059;SDS011;30799;49.060;9.312;2023-01-24T16:49:14;7.93;;;5.13;;
45059;SDS011;30799;49.060;9.312;2023-01-24T16:51:43;6.15;;;4.80;;
45059;SDS011;30799;49.060;9.312;2023-01-24T16:54:13;5.40;;;4.85;;
45059;SDS011;30799;49.060;9.312;2023-01-24T16:56:43;7.50;;;5.07;;
45059;SDS011;30799;49.060;9.312;2023-01-24T16:59:46;6.65;;;4.93;;
45059;SDS011;30799;49.060;9.312;2023-01-24T17:02:42;5.45;;;4.85;;
45059;SDS011;30799;49.060;9.312;2023-01-24T17:05:35;8.80;;;5.00;;
45059;SDS011;30799;49.060;9.312;2023-01-24T17:08:18;8.55;;;5.57;;
45059;SDS011;30799;49.060;9.312;2023-01-24T17:11:10;5.95;;;4.95;;
45059;SDS011;30799;49.060;9.312;2023-01-24T17:14:00;10.63;;;5.88;;
45059;SDS011;30799;49.060;9.312;2023-01-24T17:17:13;8.30;;;5.38;;
45059;SDS011;30799;49.060;9.312;2023-01-24T17:19:43;9.63;;;5.78;;
45059;SDS011;30799;49.060;9.312;2023-01-24T17:22:10;9.00;;;5.35;;
45059;SDS011;30799;49.060;9.312;2023-01-24T17:24:37;10.82;;;4.90;;
45059;SDS011;30799;49.060;9.312;2023-01-24T17:27:04;8.50;;;5.47;;
45059;SDS011;30799;49.060;9.312;2023-01-24T17:29:31;9.35;;;5.32;;
45059;SDS011;30799;49.060;9.312;2023-01-24T17:31:58;10.23;;;5.45;;
45059;SDS011;30799;49.060;9.312;2023-01-24T17:34:28;6.70;;;5.05;;
45059;SDS011;30799;49.060;9.312;2023-01-24T17:36:55;7.78;;;4.93;;
45059;SDS011;30799;49.060;9.312;2023-01-24T17:39:22;8.93;;;5.93;;
45059;SDS011;30799;49.060;9.312;2023-01-24T17:41:49;9.02;;;6.68;;
45059;SDS011;30799;49.060;9.312;2023-01-24T17:44:16;8.35;;;6.15;;
45059;SDS011;30799;49.060;9.312;2023-01-24T17:46:43;8.85;;;5.93;;
45059;SDS011;30799;49.060;9.312;2023-01-24T17:49:10;8.73;;;7.78;;